createdAt,value
2022-08-26T00:01:07.988Z,20.10
2022-08-26T00:03:06.426Z,23.53
2022-08-26T00:05:06.549Z,15.73
2022-08-26T00:07:06.619Z,14.07
2022-08-26T00:09:08.114Z,20.40
2022-08-26T00:11:07.300Z,16.03
2022-08-26T00:13:06.708Z,28.27
2022-08-26T00:15:09.881Z,13.53
2022-08-26T00:17:08.661Z,22.80
2022-08-26T00:19:07.028Z,23.77
2022-08-26T00:21:07.417Z,20.20
2022-08-26T00:23:07.524Z,20.03
2022-08-26T00:25:06.844Z,15.70
2022-08-26T00:27:07.557Z,24.03
2022-08-26T00:29:08.329Z,16.50
2022-08-26T00:31:07.677Z,12.60
2022-08-26T00:33:09.880Z,21.30
2022-08-26T00:35:10.594Z,19.13
2022-08-26T00:37:11.655Z,12.90
2022-08-26T00:39:14.496Z,13.52
2022-08-26T00:41:12.986Z,21.23
2022-08-26T00:43:11.890Z,23.30
2022-08-26T00:45:11.962Z,14.53
2022-08-26T00:47:17.650Z,20.10
2022-08-26T00:49:20.032Z,22.37
2022-08-26T00:51:20.212Z,14.20
2022-08-26T00:53:23.987Z,14.17
2022-08-26T00:55:37.748Z,17.88
2022-08-26T00:57:37.346Z,20.00
2022-08-26T00:59:36.225Z,27.67
2022-08-26T01:01:38.562Z,20.03
2022-08-26T01:03:39.320Z,10.67
2022-08-26T01:05:40.274Z,15.80
2022-08-26T01:07:39.493Z,23.20
2022-08-26T01:09:38.493Z,15.87
2022-08-26T01:11:39.846Z,19.67
2022-08-26T01:13:39.553Z,24.13
2022-08-26T01:15:44.017Z,29.70
2022-08-26T01:17:43.893Z,24.07
2022-08-26T01:19:46.157Z,15.83
2022-08-26T01:21:50.614Z,25.73
2022-08-26T01:23:57.510Z,22.53
2022-08-26T01:26:00.741Z,25.23
2022-08-26T01:28:03.553Z,20.67
2022-08-26T01:30:03.519Z,23.90
2022-08-26T01:32:02.143Z,20.77
2022-08-26T01:34:10.852Z,15.97
2022-08-26T01:36:09.759Z,31.00
2022-08-26T01:38:08.307Z,13.53
2022-08-26T01:40:11.504Z,28.30
2022-08-26T01:42:12.494Z,24.67
2022-08-26T01:44:16.717Z,23.83
2022-08-26T01:48:20.303Z,14.93
2022-08-26T01:50:28.238Z,24.97
2022-08-26T01:52:31.437Z,30.97
2022-08-26T01:54:29.799Z,34.80
2022-08-26T01:56:33.278Z,25.60
2022-08-26T01:58:39.322Z,20.70
2022-08-26T02:00:38.275Z,29.13
2022-08-26T02:02:36.790Z,18.57
2022-08-26T02:04:39.114Z,22.17
2022-08-26T02:06:39.106Z,21.33
2022-08-26T02:08:42.297Z,24.07
2022-08-26T02:10:40.775Z,19.40
2022-08-26T02:12:42.719Z,24.03
2022-08-26T02:14:44.450Z,28.73
2022-08-26T02:16:46.998Z,20.90
2022-08-26T02:18:46.989Z,11.00
2022-08-26T02:20:45.443Z,23.27
2022-08-26T02:22:45.071Z,28.07
2022-08-26T02:24:49.565Z,26.07
2022-08-26T02:26:49.419Z,22.97
2022-08-26T02:28:52.539Z,16.03
2022-08-26T02:30:50.949Z,29.03
2022-08-26T02:32:49.775Z,20.77
2022-08-26T02:34:48.249Z,15.63
2022-08-26T02:36:46.472Z,20.83
2022-08-26T02:38:45.206Z,20.37
2022-08-26T02:40:44.498Z,22.27
2022-08-26T02:42:43.176Z,20.40
2022-08-26T02:44:42.926Z,17.17
2022-08-26T02:46:46.825Z,16.90
2022-08-26T02:48:45.741Z,20.23
2022-08-26T02:50:44.275Z,17.57
2022-08-26T02:52:42.597Z,18.73
2022-08-26T02:54:41.538Z,15.07
2022-08-26T02:56:39.966Z,29.27
2022-08-26T02:58:38.417Z,23.33
2022-08-26T03:00:39.411Z,20.27
2022-08-26T03:02:51.721Z,11.23
2022-08-26T03:04:58.128Z,18.53
2022-08-26T03:07:00.651Z,27.23
2022-08-26T03:08:59.564Z,16.97
2022-08-26T03:10:57.794Z,23.17
2022-08-26T03:12:56.054Z,20.93
2022-08-26T03:14:54.698Z,28.37
2022-08-26T03:16:55.646Z,19.80
2022-08-26T03:18:54.376Z,27.47
2022-08-26T03:20:52.598Z,24.10
2022-08-26T03:22:53.342Z,25.67
2022-08-26T03:24:54.605Z,20.90
2022-08-26T03:26:53.268Z,26.17
2022-08-26T03:29:09.144Z,14.67
2022-08-26T03:31:08.084Z,21.83
2022-08-26T03:33:08.794Z,18.50
2022-08-26T03:35:08.618Z,30.83
2022-08-26T03:37:06.972Z,21.47
2022-08-26T03:39:06.404Z,24.20
2022-08-26T03:41:04.865Z,28.83
2022-08-26T03:43:07.311Z,22.60
2022-08-26T03:45:12.140Z,19.20
2022-08-26T03:47:10.399Z,21.37
2022-08-26T03:49:10.245Z,23.03
2022-08-26T03:51:14.058Z,23.50
2022-08-26T03:53:16.653Z,25.23
2022-08-26T03:55:19.450Z,26.87
2022-08-26T03:57:21.918Z,26.17
2022-08-26T03:59:20.532Z,36.07
2022-08-26T04:01:19.207Z,34.77
2022-08-26T04:03:37.490Z,23.53
2022-08-26T04:05:37.305Z,27.93
2022-08-26T04:07:36.961Z,32.07
2022-08-26T04:09:35.353Z,21.67
2022-08-26T04:11:35.939Z,19.77
2022-08-26T04:13:36.915Z,23.97
2022-08-26T04:15:35.226Z,39.67
2022-08-26T04:17:33.839Z,41.47
2022-08-26T04:19:33.921Z,19.67
2022-08-26T04:21:33.791Z,25.93
2022-08-26T04:23:32.207Z,28.23
2022-08-26T04:25:46.445Z,25.42
2022-08-26T04:27:44.793Z,30.33
2022-08-26T04:29:47.963Z,34.93
2022-08-26T04:31:48.596Z,27.37
2022-08-26T04:33:49.748Z,29.40
2022-08-26T04:35:48.398Z,24.43
2022-08-26T04:37:48.984Z,25.80
2022-08-26T04:39:47.105Z,42.67
2022-08-26T04:41:45.848Z,37.80
2022-08-26T04:43:44.173Z,25.70
2022-08-26T04:45:43.684Z,35.87
2022-08-26T04:47:41.838Z,29.93
2022-08-26T04:49:40.264Z,31.07
2022-08-26T04:51:40.135Z,23.70
2022-08-26T04:53:40.525Z,49.13
2022-08-26T04:55:39.943Z,50.57
2022-08-26T04:57:43.152Z,26.67
2022-08-26T04:59:41.837Z,35.27
2022-08-26T05:01:44.284Z,32.37
2022-08-26T05:03:42.738Z,28.33
2022-08-26T05:05:42.649Z,31.13
2022-08-26T05:07:41.232Z,34.53
2022-08-26T05:09:42.234Z,30.67
2022-08-26T05:11:42.740Z,34.10
2022-08-26T05:13:41.439Z,28.97
2022-08-26T05:15:40.185Z,24.87
2022-08-26T05:17:42.225Z,32.07
2022-08-26T05:19:40.478Z,28.07
2022-08-26T05:21:41.463Z,24.30
2022-08-26T05:23:39.915Z,34.03
2022-08-26T05:25:41.988Z,36.63
2022-08-26T05:27:42.763Z,36.57
2022-08-26T05:29:41.259Z,31.97
2022-08-26T05:31:39.711Z,34.23
2022-08-26T05:33:38.308Z,22.43
2022-08-26T05:35:40.380Z,21.97
2022-08-26T05:37:39.193Z,28.20
2022-08-26T05:39:37.521Z,24.60
2022-08-26T05:41:43.043Z,31.07
2022-08-26T05:43:43.635Z,27.15
2022-08-26T05:45:46.068Z,43.90
2022-08-26T05:47:44.687Z,27.00
2022-08-26T05:49:45.365Z,26.60
2022-08-26T05:51:49.970Z,28.17
2022-08-26T05:53:54.870Z,25.57
2022-08-26T05:55:54.528Z,32.23
2022-08-26T05:57:55.473Z,26.43
2022-08-26T05:59:53.872Z,29.97
2022-08-26T06:01:52.294Z,29.80
2022-08-26T06:03:52.945Z,28.77
2022-08-26T06:05:51.261Z,30.33
2022-08-26T06:08:07.052Z,41.67
2022-08-26T06:10:31.021Z,33.03
2022-08-26T06:12:25.062Z,32.67
2022-08-26T06:14:26.125Z,40.07
2022-08-26T06:16:25.383Z,31.10
2022-08-26T06:18:27.427Z,30.90
2022-08-26T06:20:27.306Z,35.88
2022-08-26T06:22:43.762Z,29.30
2022-08-26T06:24:59.342Z,22.07
2022-08-26T06:26:59.123Z,34.83
2022-08-26T06:28:57.622Z,40.00
2022-08-26T06:30:57.622Z,106.10
2022-08-26T06:32:56.497Z,32.77
2022-08-26T06:34:56.208Z,24.73
2022-08-26T06:36:54.540Z,27.50
2022-08-26T06:38:53.978Z,27.47
2022-08-26T06:40:54.944Z,29.80
2022-08-26T06:42:53.159Z,24.33
2022-08-26T06:44:52.526Z,19.47
2022-08-26T06:46:52.170Z,21.50
2022-08-26T06:48:52.060Z,20.73
2022-08-26T06:50:51.049Z,36.80
2022-08-26T06:52:49.368Z,31.03
2022-08-26T06:54:47.681Z,19.00
2022-08-26T06:56:48.953Z,25.90
2022-08-26T06:58:48.119Z,34.97
2022-08-26T07:00:47.314Z,25.93
2022-08-26T07:02:47.441Z,31.73
2022-08-26T07:04:47.720Z,24.40
2022-08-26T07:06:49.338Z,28.40
2022-08-26T07:08:47.989Z,19.33
2022-08-26T07:10:46.406Z,12.33
2022-08-26T07:12:47.246Z,19.80
2022-08-26T07:14:47.453Z,13.40
2022-08-26T07:16:47.671Z,28.60
2022-08-26T07:18:48.604Z,17.90
2022-08-26T07:20:48.154Z,29.27
2022-08-26T07:22:46.356Z,24.53
2022-08-26T07:24:44.814Z,29.93
2022-08-26T07:26:43.727Z,28.30
2022-08-26T07:28:42.092Z,32.47
2022-08-26T07:30:42.124Z,33.57
2022-08-26T07:32:40.539Z,38.80
2022-08-26T07:34:40.982Z,142.63
2022-08-26T07:36:40.186Z,117.17
2022-08-26T07:38:41.055Z,83.83
2022-08-26T07:40:41.105Z,58.87
2022-08-26T07:42:40.099Z,61.23
2022-08-26T07:44:39.721Z,46.07
2022-08-26T07:46:38.870Z,33.80
2022-08-26T07:48:37.367Z,53.97
2022-08-26T07:50:49.833Z,26.20
2022-08-26T07:52:50.147Z,45.95
2022-08-26T07:54:48.337Z,38.27
2022-08-26T07:56:46.671Z,17.93
2022-08-26T07:58:48.957Z,26.93
2022-08-26T08:00:50.218Z,30.17
2022-08-26T08:02:48.864Z,53.47
2022-08-26T08:04:48.175Z,28.90
2022-08-26T08:06:48.488Z,60.97
2022-08-26T08:08:46.856Z,80.47
2022-08-26T08:10:48.801Z,66.57
2022-08-26T08:12:47.375Z,35.10
2022-08-26T08:14:46.941Z,27.58
2022-08-26T08:16:47.213Z,26.23
2022-08-26T08:18:49.732Z,16.67
2022-08-26T08:20:54.674Z,26.80
2022-08-26T08:23:05.491Z,22.48
2022-08-26T08:25:08.055Z,29.27
2022-08-26T08:27:07.002Z,15.23
2022-08-26T08:29:08.927Z,27.70
2022-08-26T08:31:07.790Z,31.15
2022-08-26T08:33:06.169Z,26.35
2022-08-26T08:35:11.760Z,34.88
2022-08-26T08:37:10.887Z,27.85
2022-08-26T08:39:11.701Z,30.17
2022-08-26T08:41:28.141Z,25.92
2022-08-26T08:43:37.685Z,28.88
2022-08-26T08:45:40.472Z,83.90
2022-08-26T08:47:43.088Z,41.27
2022-08-26T08:49:41.352Z,24.50
2022-08-26T08:51:46.981Z,29.98
2022-08-26T08:53:49.514Z,22.48
2022-08-26T08:56:08.664Z,14.73
2022-08-26T09:00:12.545Z,26.77
2022-08-26T09:02:20.265Z,18.05
2022-08-26T09:04:55.034Z,23.08
2022-08-26T09:09:04.637Z,21.55
2022-08-26T09:11:05.782Z,31.75
2022-08-26T09:13:08.207Z,48.83
2022-08-26T09:15:21.565Z,27.70
2022-08-26T09:17:34.605Z,22.38
2022-08-26T09:19:41.251Z,24.42
2022-08-26T09:21:39.914Z,18.50
2022-08-26T09:23:41.786Z,22.92
2022-08-26T09:25:48.120Z,23.02
2022-08-26T09:27:51.614Z,20.20
2022-08-26T09:29:50.403Z,28.95
2022-08-26T09:31:49.240Z,26.15
2022-08-26T09:33:48.488Z,23.25
2022-08-26T09:35:48.942Z,25.23
2022-08-26T09:39:52.708Z,19.20
2022-08-26T09:42:04.549Z,50.33
2022-08-26T09:44:21.830Z,17.35
2022-08-26T09:46:26.344Z,13.85
2022-08-26T09:48:31.305Z,17.30
2022-08-26T09:50:31.907Z,20.70
2022-08-26T09:52:30.166Z,16.92
2022-08-26T09:54:30.317Z,101.95
2022-08-26T09:56:33.698Z,24.83
2022-08-26T09:58:37.802Z,25.63
2022-08-26T10:00:39.822Z,16.15
2022-08-26T10:02:47.731Z,17.00
2022-08-26T10:04:54.356Z,18.38
2022-08-26T10:06:58.155Z,20.13
2022-08-26T10:09:00.055Z,11.65
2022-08-26T10:11:00.427Z,18.45
2022-08-26T10:13:05.599Z,14.50
2022-08-26T10:15:10.750Z,13.43
2022-08-26T10:17:20.564Z,14.90
2022-08-26T10:19:23.684Z,18.15
2022-08-26T10:21:34.034Z,27.05
2022-08-26T10:25:56.964Z,16.70
2022-08-26T10:28:08.155Z,12.73
2022-08-26T10:30:13.832Z,12.80
2022-08-26T10:32:19.248Z,9.20
2022-08-26T10:34:18.290Z,19.92
2022-08-26T10:37:05.101Z,13.98
2022-08-26T10:39:00.587Z,11.40
2022-08-26T10:41:09.776Z,9.10
2022-08-26T10:43:13.575Z,17.15
2022-08-26T10:45:16.473Z,10.07
2022-08-26T10:47:20.488Z,13.63
2022-08-26T10:49:19.200Z,16.05
2022-08-26T10:51:23.574Z,11.18
2022-08-26T10:53:26.395Z,14.52
2022-08-26T10:55:35.136Z,7.35
2022-08-26T10:57:45.180Z,14.77
2022-08-26T10:59:54.741Z,25.70
2022-08-26T11:02:01.189Z,11.40
2022-08-26T11:04:14.200Z,23.15
2022-08-26T11:06:24.296Z,9.32
2022-08-26T11:08:30.718Z,7.70
2022-08-26T11:10:59.031Z,8.80
2022-08-26T11:13:00.594Z,13.52
2022-08-26T11:14:59.383Z,12.45
2022-08-26T11:16:58.804Z,12.63
2022-08-26T11:18:57.397Z,15.63
2022-08-26T11:20:57.155Z,11.75
2022-08-26T11:22:59.592Z,22.02
2022-08-26T11:25:16.340Z,14.05
2022-08-26T11:28:05.349Z,13.98
2022-08-26T11:30:10.062Z,15.02
2022-08-26T11:32:26.430Z,14.38
2022-08-26T11:34:52.720Z,14.57
2022-08-26T11:37:01.843Z,8.40
2022-08-26T11:39:03.348Z,17.25
2022-08-26T11:41:09.897Z,18.50
2022-08-26T11:43:13.485Z,14.65
2022-08-26T11:45:24.178Z,12.02
2022-08-26T11:47:29.827Z,12.32
2022-08-26T11:49:29.649Z,12.75
2022-08-26T11:51:29.343Z,6.95
2022-08-26T11:53:33.826Z,12.63
2022-08-26T11:55:34.294Z,14.45
2022-08-26T11:57:36.581Z,27.67
2022-08-26T11:59:39.862Z,27.35
2022-08-26T12:01:40.157Z,17.42
2022-08-26T12:03:47.057Z,14.55
2022-08-26T12:05:49.232Z,26.05
2022-08-26T12:07:53.019Z,17.40
2022-08-26T12:09:58.889Z,13.68
2022-08-26T12:12:12.872Z,15.95
2022-08-26T12:14:20.840Z,19.75
2022-08-26T12:16:25.876Z,28.17
2022-08-26T12:18:29.610Z,12.05
2022-08-26T12:20:46.076Z,14.35
2022-08-26T12:22:48.281Z,14.10
2022-08-26T12:24:50.166Z,13.65
2022-08-26T12:26:50.453Z,21.35
2022-08-26T12:28:53.256Z,9.20
2022-08-26T12:31:02.749Z,13.27
2022-08-26T12:33:22.470Z,22.73
2022-08-26T12:35:23.996Z,8.52
2022-08-26T12:37:23.503Z,23.35
2022-08-26T12:39:27.401Z,17.70
2022-08-26T12:41:44.493Z,9.38
2022-08-26T12:43:45.933Z,18.05
2022-08-26T12:45:57.028Z,6.22
2022-08-26T12:47:57.493Z,10.55
2022-08-26T12:50:03.403Z,5.68
2022-08-26T12:52:02.170Z,11.93
2022-08-26T12:54:02.315Z,9.43
2022-08-26T12:56:03.623Z,9.13
2022-08-26T12:58:21.415Z,9.23
2022-08-26T13:00:43.486Z,16.65
2022-08-26T13:02:41.878Z,6.38
2022-08-26T13:04:42.633Z,14.07
2022-08-26T13:06:40.947Z,10.95
2022-08-26T13:08:41.647Z,20.95
2022-08-26T13:10:41.660Z,12.98
2022-08-26T13:12:41.155Z,14.43
2022-08-26T13:14:40.665Z,12.95
2022-08-26T13:16:42.203Z,10.77
2022-08-26T13:18:41.000Z,11.00
2022-08-26T13:20:44.028Z,3.60
2022-08-26T13:22:42.454Z,12.73
2022-08-26T13:24:43.577Z,12.65
2022-08-26T13:26:43.450Z,11.95
2022-08-26T13:28:42.459Z,13.02
2022-08-26T13:30:44.423Z,8.98
2022-08-26T13:32:44.413Z,14.10
2022-08-26T13:34:43.090Z,8.00
2022-08-26T13:36:42.471Z,6.32
2022-08-26T13:38:40.837Z,6.45
2022-08-26T13:40:40.839Z,13.95
2022-08-26T13:42:49.417Z,10.35
2022-08-26T13:44:50.661Z,8.98
2022-08-26T13:46:49.489Z,14.43
2022-08-26T13:48:49.629Z,7.70
2022-08-26T13:50:48.540Z,15.48
2022-08-26T13:52:46.935Z,14.50
2022-08-26T13:54:45.738Z,17.58
2022-08-26T13:56:43.989Z,12.70
2022-08-26T13:58:42.434Z,4.68
2022-08-26T14:00:41.373Z,12.40
2022-08-26T14:02:39.609Z,16.58
2022-08-26T14:04:39.427Z,10.70
2022-08-26T14:06:37.779Z,9.45
2022-08-26T14:08:36.957Z,9.45
2022-08-26T14:10:35.341Z,7.88
2022-08-26T14:12:33.759Z,11.60
2022-08-26T14:14:32.016Z,11.45
2022-08-26T14:16:34.682Z,11.40
2022-08-26T14:18:41.093Z,13.52
2022-08-26T14:20:41.678Z,10.93
2022-08-26T14:22:52.090Z,6.97
2022-08-26T14:24:56.610Z,12.52
2022-08-26T14:26:54.992Z,8.52
2022-08-26T14:28:53.752Z,8.50
2022-08-26T14:30:55.001Z,8.18
2022-08-26T14:32:58.336Z,11.57
2022-08-26T14:34:57.525Z,7.63
2022-08-26T14:36:57.195Z,8.85
2022-08-26T14:38:56.404Z,11.13
2022-08-26T14:40:54.674Z,7.95
2022-08-26T14:42:55.122Z,8.55
2022-08-26T14:44:59.786Z,21.77
2022-08-26T14:46:58.196Z,7.63
2022-08-26T14:48:57.306Z,6.60
2022-08-26T14:51:00.387Z,18.50
2022-08-26T14:53:17.607Z,4.80
2022-08-26T14:55:15.922Z,11.43
2022-08-26T14:57:15.530Z,12.60
2022-08-26T14:59:21.990Z,19.33
2022-08-26T15:01:23.091Z,12.13
2022-08-26T15:03:21.951Z,13.70
2022-08-26T15:05:20.958Z,8.65
2022-08-26T15:07:20.172Z,9.93
2022-08-26T15:09:20.450Z,9.32
2022-08-26T15:11:19.279Z,14.98
2022-08-26T15:13:17.562Z,9.23
2022-08-26T15:15:18.630Z,11.80
2022-08-26T15:17:17.602Z,10.88
2022-08-26T15:19:16.683Z,7.95
2022-08-26T15:21:15.222Z,11.05
2022-08-26T15:23:15.710Z,18.15
2022-08-26T15:25:18.292Z,9.20
2022-08-26T15:27:17.223Z,4.00
2022-08-26T15:29:16.037Z,16.97
2022-08-26T15:31:14.335Z,13.35
2022-08-26T15:33:15.416Z,12.63
2022-08-26T15:35:13.826Z,15.80
2022-08-26T15:37:12.393Z,12.03
2022-08-26T15:39:10.873Z,12.60
2022-08-26T15:41:11.745Z,12.13
2022-08-26T15:43:27.960Z,10.03
2022-08-26T15:45:26.916Z,13.53
2022-08-26T15:47:26.124Z,16.07
2022-08-26T15:49:27.739Z,10.48
2022-08-26T15:51:28.969Z,8.57
2022-08-26T15:53:28.100Z,6.93
2022-08-26T15:55:26.705Z,8.57
2022-08-26T15:57:28.013Z,9.83
2022-08-26T15:59:26.703Z,14.53
2022-08-26T16:01:27.491Z,16.23
2022-08-26T16:03:26.255Z,7.63
2022-08-26T16:05:24.677Z,6.17
2022-08-26T16:07:23.591Z,13.07
2022-08-26T16:09:24.300Z,10.67
2022-08-26T16:11:26.141Z,15.87
2022-08-26T16:13:26.064Z,10.40
2022-08-26T16:15:27.253Z,6.40
2022-08-26T16:17:25.855Z,8.10
2022-08-26T16:19:24.383Z,14.73
2022-08-26T16:21:25.662Z,5.77
2022-08-26T16:23:24.414Z,13.67
2022-08-26T16:25:23.141Z,18.13
2022-08-26T16:27:23.155Z,14.83
2022-08-26T16:29:23.028Z,14.27
2022-08-26T16:31:21.555Z,11.77
2022-08-26T16:33:29.309Z,12.73
2022-08-26T16:35:28.156Z,15.87
2022-08-26T16:37:26.678Z,20.90
2022-08-26T16:39:25.166Z,12.40
2022-08-26T16:41:24.186Z,6.10
2022-08-26T16:43:25.600Z,14.50
2022-08-26T16:45:26.132Z,14.13
2022-08-26T16:47:24.503Z,9.10
2022-08-26T16:49:22.884Z,9.70
2022-08-26T16:51:24.171Z,8.50
2022-08-26T16:53:22.896Z,9.13
2022-08-26T16:55:21.662Z,10.10
2022-08-26T16:57:20.076Z,13.83
2022-08-26T16:59:18.393Z,7.70
2022-08-26T17:01:18.849Z,15.67
2022-08-26T17:03:17.287Z,8.87
2022-08-26T17:05:15.897Z,9.80
2022-08-26T17:07:14.254Z,10.40
2022-08-26T17:09:13.078Z,15.77
2022-08-26T17:11:11.765Z,13.23
2022-08-26T17:13:10.321Z,10.17
2022-08-26T17:15:10.638Z,6.77
2022-08-26T17:17:10.239Z,10.47
2022-08-26T17:19:08.566Z,12.33
2022-08-26T17:21:09.270Z,12.77
2022-08-26T17:23:09.603Z,5.90
2022-08-26T17:25:13.432Z,8.25
2022-08-26T17:27:11.910Z,11.50
2022-08-26T17:29:10.295Z,6.27
2022-08-26T17:31:09.542Z,7.17
2022-08-26T17:33:11.223Z,11.57
2022-08-26T17:35:11.001Z,10.40
2022-08-26T17:37:11.249Z,11.33
2022-08-26T17:39:11.232Z,10.73
2022-08-26T17:41:13.650Z,17.60
2022-08-26T17:43:12.599Z,8.00
2022-08-26T17:45:13.978Z,21.23
2022-08-26T17:47:14.985Z,9.80
2022-08-26T17:49:16.138Z,14.53
2022-08-26T17:51:16.762Z,7.83
2022-08-26T17:53:18.859Z,17.20
2022-08-26T17:55:19.234Z,18.23
2022-08-26T17:57:18.424Z,77.73
2022-08-26T17:59:17.393Z,50.47
2022-08-26T18:01:16.834Z,25.80
2022-08-26T18:03:15.667Z,61.30
2022-08-26T18:05:17.820Z,36.27
2022-08-26T18:07:17.050Z,22.10
2022-08-26T18:09:15.241Z,19.10
2022-08-26T18:11:15.853Z,17.10
2022-08-26T18:13:15.367Z,17.33
2022-08-26T18:15:15.278Z,19.83
2022-08-26T18:17:13.995Z,22.97
2022-08-26T18:19:17.867Z,21.90
2022-08-26T18:21:19.560Z,19.50
2022-08-26T18:23:18.361Z,12.67
2022-08-26T18:25:18.505Z,21.07
2022-08-26T18:27:17.936Z,16.80
2022-08-26T18:29:18.601Z,13.37
2022-08-26T18:31:17.210Z,39.67
2022-08-26T18:33:15.971Z,27.97
2022-08-26T18:35:15.136Z,21.40
2022-08-26T18:37:14.903Z,22.63
2022-08-26T18:39:15.520Z,33.43
2022-08-26T18:41:13.857Z,24.07
2022-08-26T18:43:12.957Z,31.23
2022-08-26T18:45:16.047Z,21.27
2022-08-26T18:47:14.956Z,19.75
2022-08-26T18:49:15.058Z,19.13
2022-08-26T18:51:18.403Z,23.97
2022-08-26T18:53:18.128Z,28.27
2022-08-26T18:55:49.110Z,23.23
2022-08-26T18:57:47.539Z,21.77
2022-08-26T18:59:46.032Z,19.17
2022-08-26T19:01:50.421Z,26.10
2022-08-26T19:03:49.257Z,20.03
2022-08-26T19:05:47.921Z,22.17
2022-08-26T19:07:46.209Z,19.40
2022-08-26T19:09:48.002Z,22.97
2022-08-26T19:11:52.331Z,21.10
2022-08-26T19:13:50.750Z,174.87
2022-08-26T19:15:49.152Z,173.63
2022-08-26T19:17:48.300Z,52.23
2022-08-26T19:19:46.935Z,121.73
2022-08-26T19:21:45.671Z,26.00
2022-08-26T19:23:44.450Z,30.20
2022-08-26T19:25:44.817Z,40.83
2022-08-26T19:27:43.229Z,32.90
2022-08-26T19:29:42.241Z,30.40
2022-08-26T19:31:42.260Z,26.17
2022-08-26T19:33:45.601Z,29.27
2022-08-26T19:35:46.360Z,20.63
2022-08-26T19:37:44.990Z,21.93
2022-08-26T19:39:43.450Z,27.43
2022-08-26T19:41:43.272Z,22.80
2022-08-26T19:43:41.565Z,30.53
2022-08-26T19:45:40.254Z,15.43
2022-08-26T19:47:39.744Z,24.50
2022-08-26T19:49:39.444Z,22.63
2022-08-26T19:51:37.990Z,18.43
2022-08-26T19:53:36.265Z,28.23
2022-08-26T19:55:35.177Z,19.87
2022-08-26T19:57:35.434Z,14.60
2022-08-26T19:59:35.509Z,18.77
2022-08-26T20:01:33.757Z,16.80
2022-08-26T20:03:33.359Z,22.17
2022-08-26T20:05:31.809Z,24.27
2022-08-26T20:07:30.043Z,19.90
2022-08-26T20:09:28.916Z,13.23
2022-08-26T20:11:27.381Z,14.57
2022-08-26T20:13:27.101Z,16.67
2022-08-26T20:15:25.516Z,26.13
2022-08-26T20:17:26.913Z,21.17
2022-08-26T20:19:42.731Z,21.73
2022-08-26T20:21:41.438Z,26.23
2022-08-26T20:23:41.397Z,23.90
2022-08-26T20:25:39.846Z,25.07
2022-08-26T20:27:38.704Z,19.03
2022-08-26T20:29:38.599Z,25.87
2022-08-26T20:31:37.477Z,29.63
2022-08-26T20:33:46.317Z,28.73
2022-08-26T20:35:45.058Z,34.03
2022-08-26T20:37:44.006Z,20.77
2022-08-26T20:39:42.366Z,31.50
2022-08-26T20:41:41.316Z,29.57
2022-08-26T20:43:39.745Z,28.17
2022-08-26T20:45:39.372Z,28.60
2022-08-26T20:47:37.709Z,27.33
2022-08-26T20:49:36.541Z,22.00
2022-08-26T20:51:37.433Z,24.37
2022-08-26T20:53:35.920Z,27.97
2022-08-26T20:55:34.225Z,20.07
2022-08-26T20:57:32.644Z,26.63
2022-08-26T20:59:30.833Z,13.13
2022-08-26T21:01:34.769Z,17.43
2022-08-26T21:05:31.631Z,17.57
2022-08-26T21:07:30.177Z,11.80
2022-08-26T21:09:28.895Z,18.30
2022-08-26T21:11:29.237Z,7.80
2022-08-26T21:13:30.744Z,10.17
2022-08-26T21:15:34.252Z,17.87
2022-08-26T21:17:34.056Z,13.07
2022-08-26T21:19:32.298Z,9.63
2022-08-26T21:21:30.850Z,11.30
2022-08-26T21:23:29.436Z,12.17
2022-08-26T21:25:27.877Z,16.17
2022-08-26T21:27:26.689Z,14.40
2022-08-26T21:29:26.295Z,13.30
2022-08-26T21:31:26.294Z,11.10
2022-08-26T21:33:25.996Z,12.60
2022-08-26T21:35:27.530Z,8.20
2022-08-26T21:37:27.623Z,7.67
2022-08-26T21:39:25.974Z,12.10
2022-08-26T21:41:25.102Z,10.30
2022-08-26T21:43:33.692Z,14.13
2022-08-26T21:45:34.233Z,3.77
2022-08-26T21:47:32.863Z,15.47
2022-08-26T21:49:32.523Z,21.37
2022-08-26T21:51:32.758Z,12.23
2022-08-26T21:53:31.236Z,14.63
2022-08-26T21:55:29.496Z,24.40
2022-08-26T21:57:28.828Z,7.67
2022-08-26T21:59:27.063Z,11.83
2022-08-26T22:01:29.592Z,12.73
2022-08-26T22:03:28.138Z,15.60
2022-08-26T22:05:31.245Z,12.50
2022-08-26T22:07:29.658Z,14.70
2022-08-26T22:09:30.899Z,10.30
2022-08-26T22:11:29.692Z,12.90
2022-08-26T22:13:31.926Z,10.97
2022-08-26T22:15:33.133Z,11.77
2022-08-26T22:17:31.693Z,10.77
2022-08-26T22:19:31.801Z,11.57
2022-08-26T22:21:35.872Z,10.33
2022-08-26T22:23:34.497Z,9.53
2022-08-26T22:25:33.598Z,19.50
2022-08-26T22:27:31.878Z,19.70
2022-08-26T22:29:30.149Z,9.70
2022-08-26T22:31:37.788Z,14.27
2022-08-26T22:33:36.914Z,9.20
2022-08-26T22:35:40.631Z,10.93
2022-08-26T22:37:40.398Z,17.35
2022-08-26T22:39:39.328Z,9.70
2022-08-26T22:41:37.621Z,14.73
2022-08-26T22:43:36.257Z,11.20
2022-08-26T22:45:34.571Z,6.90
2022-08-26T22:47:33.526Z,14.53
2022-08-26T22:49:34.066Z,5.87
2022-08-26T22:51:32.614Z,11.97
2022-08-26T22:53:35.219Z,14.57
2022-08-26T22:55:34.353Z,7.15
2022-08-26T22:57:33.027Z,13.00
2022-08-26T22:59:31.331Z,20.80
2022-08-26T23:01:29.831Z,13.70
2022-08-26T23:03:28.719Z,9.43
2022-08-26T23:05:27.012Z,9.93
2022-08-26T23:07:25.379Z,9.90
2022-08-26T23:09:25.072Z,15.27
2022-08-26T23:11:23.370Z,13.83
2022-08-26T23:13:22.051Z,11.93
2022-08-26T23:15:21.250Z,21.17
2022-08-26T23:17:19.456Z,12.03
2022-08-26T23:19:19.741Z,14.07
2022-08-26T23:21:17.976Z,7.90
2022-08-26T23:23:16.310Z,15.13
2022-08-26T23:25:16.139Z,9.27
2022-08-26T23:27:14.472Z,10.47
2022-08-26T23:29:15.724Z,10.70
2022-08-26T23:31:14.804Z,14.73
2022-08-26T23:33:13.285Z,15.60
2022-08-26T23:35:12.008Z,18.67
2022-08-26T23:37:12.708Z,12.47
2022-08-26T23:39:11.103Z,11.10
2022-08-26T23:41:10.757Z,13.00
2022-08-26T23:43:12.610Z,13.93
2022-08-26T23:45:13.554Z,9.50
2022-08-26T23:47:12.251Z,15.80
2022-08-26T23:49:10.531Z,10.47
2022-08-26T23:51:26.535Z,15.20
2022-08-26T23:53:24.994Z,15.40
2022-08-26T23:55:23.728Z,13.10
2022-08-26T23:57:26.066Z,13.23
2022-08-26T23:59:24.525Z,15.33
